createdAt,value
2023-07-18T00:00:49.674Z,99.99
2023-07-18T00:01:49.648Z,99.99
2023-07-18T00:02:49.620Z,99.99
2023-07-18T00:03:49.662Z,99.99
2023-07-18T00:04:49.574Z,99.99
2023-07-18T00:05:49.574Z,99.99
2023-07-18T00:06:49.553Z,99.99
2023-07-18T00:07:49.528Z,99.99
2023-07-18T00:08:49.525Z,99.99
2023-07-18T00:09:49.537Z,99.99
2023-07-18T00:10:49.492Z,99.99
2023-07-18T00:11:49.476Z,99.99
2023-07-18T00:12:49.472Z,99.99
2023-07-18T00:13:49.471Z,99.99
2023-07-18T00:14:49.444Z,99.99
2023-07-18T00:15:49.479Z,99.99
2023-07-18T00:16:49.411Z,99.99
2023-07-18T00:17:49.451Z,99.99
2023-07-18T00:18:49.387Z,99.99
2023-07-18T00:19:49.369Z,99.99
2023-07-18T00:20:49.520Z,99.99
2023-07-18T00:21:49.346Z,99.99
2023-07-18T00:22:49.644Z,99.99
2023-07-18T00:23:49.321Z,99.99
2023-07-18T00:24:49.312Z,99.99
2023-07-18T00:25:49.309Z,99.99
2023-07-18T00:26:49.281Z,99.92
2023-07-18T00:27:49.275Z,99.32
2023-07-18T00:28:49.255Z,99.01
2023-07-18T00:29:49.258Z,98.71
2023-07-18T00:30:49.239Z,98.71
2023-07-18T00:31:49.252Z,98.81
2023-07-18T00:32:49.319Z,99.32
2023-07-18T00:33:49.182Z,99.01
2023-07-18T00:34:49.170Z,98.71
2023-07-18T00:35:49.158Z,99.52
2023-07-18T00:36:49.146Z,99.92
2023-07-18T00:37:49.365Z,99.32
2023-07-18T00:38:49.135Z,99.01
2023-07-18T00:39:49.105Z,98.71
2023-07-18T00:40:49.097Z,98.96
2023-07-18T00:41:51.816Z,99.05
2023-07-18T00:42:49.268Z,99.16
2023-07-18T00:43:49.049Z,98.65
2023-07-18T00:44:49.036Z,98.65
2023-07-18T00:45:49.122Z,97.74
2023-07-18T00:46:49.038Z,98.55
2023-07-18T00:47:49.066Z,99.87
2023-07-18T00:48:48.987Z,99.99
2023-07-18T00:49:48.979Z,99.99
2023-07-18T00:50:48.957Z,99.99
2023-07-18T00:51:48.945Z,99.99
2023-07-18T00:52:48.932Z,99.56
2023-07-18T00:53:48.924Z,99.99
2023-07-18T00:54:48.910Z,99.87
2023-07-18T00:55:48.898Z,99.99
2023-07-18T00:56:48.870Z,99.99
2023-07-18T00:57:48.904Z,99.99
2023-07-18T00:58:48.871Z,99.99
2023-07-18T00:59:48.839Z,99.99
2023-07-18T01:00:48.902Z,99.91
2023-07-18T01:01:48.908Z,98.90
2023-07-18T01:02:48.964Z,98.50
2023-07-18T01:03:48.955Z,99.10
2023-07-18T01:04:48.782Z,98.90
2023-07-18T01:05:48.752Z,98.60
2023-07-18T01:06:48.885Z,99.30
2023-07-18T01:07:48.759Z,97.49
2023-07-18T01:08:48.713Z,96.67
2023-07-18T01:09:48.953Z,96.98
2023-07-18T01:10:48.683Z,97.28
2023-07-18T01:11:48.681Z,98.44
2023-07-18T01:12:48.669Z,98.60
2023-07-18T01:13:48.668Z,98.74
2023-07-18T01:14:48.642Z,98.54
2023-07-18T01:15:48.687Z,98.44
2023-07-18T01:16:48.609Z,98.09
2023-07-18T01:17:48.648Z,99.46
2023-07-18T01:18:48.574Z,98.85
2023-07-18T01:19:48.571Z,97.94
2023-07-18T01:20:48.552Z,98.85
2023-07-18T01:21:48.544Z,99.55
2023-07-18T01:22:48.585Z,99.99
2023-07-18T01:23:48.514Z,97.47
2023-07-18T01:24:48.497Z,98.54
2023-07-18T01:25:48.488Z,98.08
2023-07-18T01:26:48.625Z,98.39
2023-07-18T01:27:48.457Z,98.69
2023-07-18T01:28:48.446Z,98.49
2023-07-18T01:29:48.451Z,98.18
2023-07-18T01:30:48.437Z,97.67
2023-07-18T01:31:48.477Z,97.67
2023-07-18T01:32:48.420Z,97.17
2023-07-18T01:33:48.386Z,97.07
2023-07-18T01:34:48.671Z,97.47
2023-07-18T01:35:48.573Z,97.98
2023-07-18T01:36:48.337Z,98.08
2023-07-18T01:37:48.433Z,97.47
2023-07-18T01:38:48.324Z,97.47
2023-07-18T01:39:48.292Z,97.38
2023-07-18T01:40:48.512Z,97.88
2023-07-18T01:41:48.261Z,96.26
2023-07-18T01:42:48.247Z,96.66
2023-07-18T01:43:48.249Z,96.87
2023-07-18T01:44:48.231Z,96.97
2023-07-18T01:45:48.239Z,97.32
2023-07-18T01:46:48.336Z,97.27
2023-07-18T01:47:48.245Z,97.38
2023-07-18T01:48:48.170Z,98.03
2023-07-18T01:49:48.159Z,98.13
2023-07-18T01:50:48.139Z,98.43
2023-07-18T01:51:48.128Z,98.13
2023-07-18T01:52:48.429Z,98.03
2023-07-18T01:53:51.009Z,97.98
2023-07-18T01:54:48.114Z,98.33
2023-07-18T01:55:48.085Z,98.23
2023-07-18T01:56:48.064Z,97.83
2023-07-18T01:57:48.049Z,97.32
2023-07-18T01:58:48.243Z,96.61
2023-07-18T01:59:48.021Z,96.91
2023-07-18T02:00:48.041Z,97.11
2023-07-18T02:01:48.083Z,96.91
2023-07-18T02:02:48.045Z,97.32
2023-07-18T02:03:48.386Z,98.13
2023-07-18T02:04:47.952Z,98.74
2023-07-18T02:05:47.936Z,98.84
2023-07-18T02:06:47.927Z,98.94
2023-07-18T02:07:47.914Z,99.04
2023-07-18T02:08:47.901Z,98.94
2023-07-18T02:09:47.883Z,98.74
2023-07-18T02:10:47.927Z,98.28
2023-07-18T02:11:47.861Z,97.32
2023-07-18T02:12:47.851Z,97.72
2023-07-18T02:13:47.834Z,98.99
2023-07-18T02:14:47.840Z,99.39
2023-07-18T02:15:47.809Z,98.38
2023-07-18T02:16:47.820Z,97.56
2023-07-18T02:17:47.849Z,97.67
2023-07-18T02:18:47.766Z,97.77
2023-07-18T02:19:47.747Z,97.87
2023-07-18T02:20:47.738Z,98.18
2023-07-18T02:21:47.732Z,98.38
2023-07-18T02:22:47.716Z,98.28
2023-07-18T02:23:48.189Z,98.18
2023-07-18T02:24:47.676Z,97.97
2023-07-18T02:25:47.681Z,97.61
2023-07-18T02:26:47.655Z,97.36
2023-07-18T02:27:47.695Z,97.77
2023-07-18T02:28:47.634Z,98.07
2023-07-18T02:29:47.621Z,98.22
2023-07-18T02:30:47.658Z,98.43
2023-07-18T02:31:47.594Z,98.58
2023-07-18T02:32:47.583Z,98.99
2023-07-18T02:33:47.587Z,98.99
2023-07-18T02:34:47.544Z,98.88
2023-07-18T02:35:47.538Z,99.13
2023-07-18T02:36:47.536Z,99.49
2023-07-18T02:37:47.522Z,99.33
2023-07-18T02:38:47.512Z,98.12
2023-07-18T02:39:47.487Z,98.12
2023-07-18T02:40:47.470Z,97.71
2023-07-18T02:41:47.469Z,97.61
2023-07-18T02:42:47.446Z,97.41
2023-07-18T02:43:47.429Z,97.61
2023-07-18T02:44:47.410Z,96.95
2023-07-18T02:45:50.272Z,96.70
2023-07-18T02:46:47.432Z,96.19
2023-07-18T02:47:47.444Z,97.92
2023-07-18T02:48:47.354Z,97.76
2023-07-18T02:49:47.361Z,98.68
2023-07-18T02:50:47.326Z,98.57
2023-07-18T02:51:47.323Z,98.88
2023-07-18T02:52:47.309Z,98.77
2023-07-18T02:53:47.299Z,98.68
2023-07-18T02:54:47.275Z,98.47
2023-07-18T02:55:47.264Z,98.57
2023-07-18T02:56:47.263Z,98.77
2023-07-18T02:57:47.263Z,99.18
2023-07-18T02:58:47.223Z,98.97
2023-07-18T02:59:47.208Z,99.18
2023-07-18T03:00:47.202Z,99.08
2023-07-18T03:01:47.211Z,99.18
2023-07-18T03:02:47.249Z,98.27
2023-07-18T03:03:47.186Z,97.25
2023-07-18T03:04:47.139Z,98.07
2023-07-18T03:05:47.157Z,97.86
2023-07-18T03:06:47.110Z,97.76
2023-07-18T03:07:47.096Z,97.86
2023-07-18T03:08:47.086Z,97.96
2023-07-18T03:09:47.202Z,98.37
2023-07-18T03:10:47.060Z,98.11
2023-07-18T03:11:47.042Z,98.07
2023-07-18T03:12:47.041Z,97.60
2023-07-18T03:13:47.030Z,98.01
2023-07-18T03:14:47.009Z,98.57
2023-07-18T03:15:46.992Z,98.72
2023-07-18T03:16:47.189Z,98.72
2023-07-18T03:17:47.008Z,98.72
2023-07-18T03:18:46.955Z,99.02
2023-07-18T03:19:46.958Z,98.82
2023-07-18T03:20:46.924Z,98.82
2023-07-18T03:21:46.946Z,98.62
2023-07-18T03:22:46.925Z,98.46
2023-07-18T03:23:46.876Z,97.91
2023-07-18T03:24:46.906Z,97.60
2023-07-18T03:25:46.850Z,97.44
2023-07-18T03:26:46.833Z,97.60
2023-07-18T03:27:46.825Z,98.46
2023-07-18T03:28:46.812Z,98.46
2023-07-18T03:29:46.793Z,98.36
2023-07-18T03:30:46.782Z,98.46
2023-07-18T03:31:46.823Z,98.46
2023-07-18T03:32:46.802Z,98.36
2023-07-18T03:33:46.747Z,98.46
2023-07-18T03:34:46.729Z,98.97
2023-07-18T03:35:46.811Z,98.77
2023-07-18T03:36:46.698Z,98.36
2023-07-18T03:37:46.706Z,98.36
2023-07-18T03:38:46.668Z,98.05
2023-07-18T03:39:46.668Z,97.75
2023-07-18T03:40:46.648Z,97.55
2023-07-18T03:41:46.630Z,97.65
2023-07-18T03:42:46.780Z,97.14
2023-07-18T03:43:46.606Z,97.24
2023-07-18T03:44:46.589Z,98.30
2023-07-18T03:45:46.600Z,98.05
2023-07-18T03:46:46.598Z,97.80
2023-07-18T03:47:46.594Z,97.29
2023-07-18T03:48:46.567Z,96.88
2023-07-18T03:49:46.520Z,96.94
2023-07-18T03:50:46.501Z,97.29
2023-07-18T03:51:46.493Z,97.24
2023-07-18T03:52:46.473Z,97.39
2023-07-18T03:53:46.501Z,97.60
2023-07-18T03:54:46.725Z,97.49
2023-07-18T03:55:46.458Z,97.39
2023-07-18T03:56:46.433Z,97.39
2023-07-18T03:57:46.415Z,97.39
2023-07-18T03:58:46.401Z,97.39
2023-07-18T03:59:46.424Z,97.29
2023-07-18T04:00:46.376Z,97.08
2023-07-18T04:01:46.444Z,96.98
2023-07-18T04:02:47.465Z,96.88
2023-07-18T04:03:46.350Z,96.37
2023-07-18T04:04:46.314Z,95.97
2023-07-18T04:05:46.308Z,95.76
2023-07-18T04:06:46.280Z,96.07
2023-07-18T04:07:46.269Z,96.17
2023-07-18T04:08:46.261Z,96.47
2023-07-18T04:09:46.271Z,96.68
2023-07-18T04:10:46.239Z,96.68
2023-07-18T04:11:46.241Z,97.39
2023-07-18T04:12:46.218Z,98.30
2023-07-18T04:13:46.197Z,98.91
2023-07-18T04:14:46.184Z,98.97
2023-07-18T04:15:46.177Z,98.81
2023-07-18T04:16:46.218Z,98.46
2023-07-18T04:17:46.224Z,98.86
2023-07-18T04:18:46.147Z,99.07
2023-07-18T04:19:46.113Z,98.66
2023-07-18T04:20:46.098Z,98.97
2023-07-18T04:21:46.078Z,98.97
2023-07-18T04:22:46.107Z,98.56
2023-07-18T04:23:46.053Z,98.26
2023-07-18T04:24:46.042Z,99.27
2023-07-18T04:25:46.058Z,98.77
2023-07-18T04:26:46.029Z,98.16
2023-07-18T04:27:46.014Z,98.26
2023-07-18T04:28:45.984Z,98.66
2023-07-18T04:29:45.979Z,98.86
2023-07-18T04:30:45.956Z,99.07
2023-07-18T04:31:45.971Z,99.07
2023-07-18T04:32:45.950Z,99.07
2023-07-18T04:33:45.917Z,99.07
2023-07-18T04:34:45.897Z,98.86
2023-07-18T04:35:45.886Z,98.56
2023-07-18T04:36:45.886Z,98.66
2023-07-18T04:37:45.857Z,99.07
2023-07-18T04:38:45.841Z,99.07
2023-07-18T04:39:45.832Z,99.07
2023-07-18T04:40:45.822Z,99.02
2023-07-18T04:41:55.173Z,98.86
2023-07-18T04:42:46.822Z,99.53
2023-07-18T04:43:45.781Z,99.38
2023-07-18T04:44:45.758Z,99.27
2023-07-18T04:45:46.053Z,97.40
2023-07-18T04:46:45.926Z,95.47
2023-07-18T04:47:45.733Z,95.87
2023-07-18T04:48:45.702Z,96.99
2023-07-18T04:49:45.692Z,97.30
2023-07-18T04:50:45.693Z,97.71
2023-07-18T04:51:45.660Z,96.38
2023-07-18T04:52:45.655Z,97.20
2023-07-18T04:53:45.636Z,96.99
2023-07-18T04:54:45.627Z,96.18
2023-07-18T04:55:45.615Z,95.47
2023-07-18T04:56:45.608Z,96.08
2023-07-18T04:57:45.613Z,96.59
2023-07-18T04:58:45.569Z,97.50
2023-07-18T04:59:45.567Z,97.20
2023-07-18T05:00:45.534Z,97.91
2023-07-18T05:01:45.580Z,97.25
2023-07-18T05:02:45.525Z,95.02
2023-07-18T05:03:57.266Z,96.75
2023-07-18T05:04:46.586Z,97.35
2023-07-18T05:05:46.493Z,98.77
2023-07-18T05:06:45.452Z,98.77
2023-07-18T05:07:45.443Z,99.04
2023-07-18T05:08:45.423Z,99.13
2023-07-18T05:09:45.417Z,99.54
2023-07-18T05:10:45.398Z,99.74
2023-07-18T05:11:45.382Z,99.99
2023-07-18T05:12:45.379Z,99.99
2023-07-18T05:13:45.385Z,99.99
2023-07-18T05:14:45.385Z,99.99
2023-07-18T05:15:45.351Z,99.99
2023-07-18T05:16:45.364Z,99.99
2023-07-18T05:17:45.352Z,99.99
2023-07-18T05:18:45.292Z,99.29
2023-07-18T05:19:45.275Z,99.99
2023-07-18T05:20:45.263Z,99.99
2023-07-18T05:21:45.256Z,99.99
2023-07-18T05:22:45.288Z,99.99
2023-07-18T05:23:45.249Z,99.75
2023-07-18T05:24:45.209Z,99.99
2023-07-18T05:25:45.195Z,99.99
2023-07-18T05:26:45.183Z,99.99
2023-07-18T05:27:45.171Z,99.99
2023-07-18T05:28:45.171Z,99.99
2023-07-18T05:29:45.174Z,99.99
2023-07-18T05:30:45.129Z,99.99
2023-07-18T05:31:45.138Z,99.99
2023-07-18T05:32:45.130Z,99.99
2023-07-18T05:33:45.083Z,99.99
2023-07-18T05:34:45.072Z,99.99
2023-07-18T05:35:45.064Z,99.99
2023-07-18T05:36:45.050Z,99.99
2023-07-18T05:37:45.027Z,99.99
2023-07-18T05:38:45.024Z,99.99
2023-07-18T05:39:45.008Z,99.99
2023-07-18T05:40:45.011Z,99.99
2023-07-18T05:41:44.978Z,99.99
2023-07-18T05:42:44.967Z,99.99
2023-07-18T05:43:44.960Z,99.99
2023-07-18T05:44:44.935Z,99.99
2023-07-18T05:45:45.008Z,99.99
2023-07-18T05:46:44.913Z,99.99
2023-07-18T05:47:45.056Z,99.99
2023-07-18T05:48:44.890Z,99.99
2023-07-18T05:49:44.870Z,99.99
2023-07-18T05:50:44.858Z,99.99
2023-07-18T05:51:44.845Z,99.99
2023-07-18T05:52:44.833Z,99.99
2023-07-18T05:53:44.823Z,99.99
2023-07-18T05:54:44.848Z,99.99
2023-07-18T05:55:44.795Z,99.99
2023-07-18T05:56:44.771Z,99.99
2023-07-18T05:57:44.763Z,99.99
2023-07-18T05:58:44.752Z,99.99
2023-07-18T05:59:44.733Z,99.99
2023-07-18T06:00:44.733Z,99.99
2023-07-18T06:01:44.760Z,99.99
2023-07-18T06:02:44.714Z,99.99
2023-07-18T06:03:44.758Z,99.99
2023-07-18T06:04:44.967Z,99.99
2023-07-18T06:05:44.667Z,99.99
2023-07-18T06:06:44.657Z,99.99
2023-07-18T06:07:44.625Z,99.99
2023-07-18T06:08:44.621Z,99.99
2023-07-18T06:09:44.612Z,99.99
2023-07-18T06:10:44.588Z,99.99
2023-07-18T06:11:44.571Z,99.99
2023-07-18T06:12:44.567Z,99.99
2023-07-18T06:13:44.549Z,99.99
2023-07-18T06:14:44.560Z,99.69
2023-07-18T06:15:44.536Z,99.99
2023-07-18T06:16:44.533Z,99.39
2023-07-18T06:17:44.557Z,99.99
2023-07-18T06:18:44.499Z,99.99
2023-07-18T06:19:44.471Z,99.99
2023-07-18T06:20:44.457Z,99.99
2023-07-18T06:21:44.443Z,99.99
2023-07-18T06:22:44.451Z,96.53
2023-07-18T06:23:46.576Z,94.01
2023-07-18T06:24:44.403Z,98.24
2023-07-18T06:25:44.402Z,93.97
2023-07-18T06:26:44.384Z,90.05
2023-07-18T06:27:44.353Z,94.02
2023-07-18T06:28:44.369Z,91.11
2023-07-18T06:29:44.625Z,92.32
2023-07-18T06:30:44.345Z,99.26
2023-07-18T06:31:44.302Z,93.02
2023-07-18T06:32:44.314Z,97.55
2023-07-18T06:33:44.316Z,92.22
2023-07-18T06:34:44.263Z,92.22
2023-07-18T06:35:44.252Z,96.19
2023-07-18T06:36:44.259Z,89.56
2023-07-18T06:37:44.225Z,93.68
2023-07-18T06:38:44.220Z,89.56
2023-07-18T06:39:44.196Z,92.77
2023-07-18T06:40:44.186Z,86.54
2023-07-18T06:41:44.169Z,90.66
2023-07-18T06:42:44.168Z,93.88
2023-07-18T06:43:44.154Z,94.54
2023-07-18T06:44:44.130Z,94.34
2023-07-18T06:45:44.110Z,85.05
2023-07-18T06:46:44.562Z,84.05
2023-07-18T06:47:44.103Z,79.29
2023-07-18T06:48:44.088Z,81.60
2023-07-18T06:49:44.085Z,77.39
2023-07-18T06:50:44.051Z,79.66
2023-07-18T06:51:44.039Z,80.26
2023-07-18T06:52:44.024Z,78.25
2023-07-18T06:53:44.008Z,77.05
2023-07-18T06:54:43.995Z,78.05
2023-07-18T06:55:43.977Z,88.89
2023-07-18T06:56:44.047Z,81.12
2023-07-18T06:57:45.035Z,83.03
2023-07-18T06:58:43.940Z,79.86
2023-07-18T06:59:43.926Z,91.25
2023-07-18T07:00:43.991Z,85.44
2023-07-18T07:01:43.902Z,82.09
2023-07-18T07:02:44.027Z,86.16
2023-07-18T07:03:43.971Z,85.46
2023-07-18T07:04:43.867Z,75.43
2023-07-18T07:05:43.877Z,76.00
2023-07-18T07:06:43.882Z,76.17
2023-07-18T07:07:43.814Z,73.72
2023-07-18T07:08:43.823Z,78.09
2023-07-18T07:09:43.787Z,68.56
2023-07-18T07:10:43.788Z,71.83
2023-07-18T07:11:43.764Z,70.42
2023-07-18T07:12:43.752Z,68.52
2023-07-18T07:13:43.740Z,69.82
2023-07-18T07:14:43.722Z,68.82
2023-07-18T07:15:43.723Z,68.93
2023-07-18T07:16:43.735Z,64.80
2023-07-18T07:17:43.817Z,62.77
2023-07-18T07:18:43.673Z,65.14
2023-07-18T07:19:43.665Z,69.99
2023-07-18T07:20:43.647Z,63.38
2023-07-18T07:21:43.650Z,61.29
2023-07-18T07:22:43.622Z,63.35
2023-07-18T07:23:43.625Z,63.59
2023-07-18T07:24:43.598Z,63.79
2023-07-18T07:25:43.590Z,62.37
2023-07-18T07:26:43.578Z,57.86
2023-07-18T07:27:43.558Z,59.82
2023-07-18T07:28:43.544Z,60.82
2023-07-18T07:29:43.536Z,60.02
2023-07-18T07:30:43.541Z,60.44
2023-07-18T07:31:43.509Z,59.08
2023-07-18T07:32:43.531Z,61.40
2023-07-18T07:33:43.473Z,61.63
2023-07-18T07:34:43.481Z,60.83
2023-07-18T07:35:43.447Z,59.31
2023-07-18T07:36:43.442Z,58.88
2023-07-18T07:37:43.449Z,56.24
2023-07-18T07:38:43.422Z,54.40
2023-07-18T07:39:43.400Z,53.85
2023-07-18T07:40:43.391Z,52.94
2023-07-18T07:41:43.384Z,51.92
2023-07-18T07:42:43.357Z,51.32
2023-07-18T07:43:43.456Z,52.69
2023-07-18T07:44:43.328Z,54.05
2023-07-18T07:45:43.331Z,57.51
2023-07-18T07:46:43.348Z,56.55
2023-07-18T07:47:43.333Z,56.18
2023-07-18T07:48:43.502Z,56.38
2023-07-18T07:49:43.501Z,53.13
2023-07-18T07:50:43.252Z,53.90
2023-07-18T07:51:43.244Z,53.78
2023-07-18T07:52:43.235Z,52.36
2023-07-18T07:53:43.235Z,52.34
2023-07-18T07:54:43.203Z,53.48
2023-07-18T07:55:43.200Z,54.64
2023-07-18T07:56:43.174Z,55.01
2023-07-18T07:57:43.160Z,53.72
2023-07-18T07:58:45.698Z,53.65
2023-07-18T07:59:44.163Z,54.86
2023-07-18T08:00:43.147Z,54.64
2023-07-18T08:01:43.164Z,54.74
2023-07-18T08:02:43.129Z,52.73
2023-07-18T08:03:43.099Z,52.51
2023-07-18T08:04:43.257Z,54.59
2023-07-18T08:05:43.064Z,52.81
2023-07-18T08:06:43.045Z,52.58
2023-07-18T08:07:43.032Z,51.84
2023-07-18T08:08:43.023Z,51.23
2023-07-18T08:09:43.057Z,50.31
2023-07-18T08:10:42.994Z,51.07
2023-07-18T08:11:42.996Z,47.63
2023-07-18T08:12:42.963Z,46.91
2023-07-18T08:13:42.972Z,47.01
2023-07-18T08:14:42.946Z,50.78
2023-07-18T08:15:42.926Z,48.41
2023-07-18T08:16:42.951Z,50.41
2023-07-18T08:17:42.968Z,49.03
2023-07-18T08:18:42.887Z,49.69
2023-07-18T08:19:42.894Z,50.78
2023-07-18T08:20:42.878Z,50.98
2023-07-18T08:21:42.867Z,49.90
2023-07-18T08:22:43.071Z,46.40
2023-07-18T08:23:42.845Z,46.50
2023-07-18T08:24:42.824Z,45.68
2023-07-18T08:25:42.914Z,46.45
2023-07-18T08:26:42.809Z,45.15
2023-07-18T08:27:42.785Z,46.53
2023-07-18T08:28:42.837Z,44.07
2023-07-18T08:29:42.754Z,45.92
2023-07-18T08:30:42.748Z,47.19
2023-07-18T08:31:42.751Z,44.71
2023-07-18T08:32:42.760Z,46.09
2023-07-18T08:33:42.753Z,42.06
2023-07-18T08:34:42.696Z,42.82
2023-07-18T08:35:42.680Z,46.06
2023-07-18T08:36:42.666Z,46.75
2023-07-18T08:37:42.690Z,45.40
2023-07-18T08:38:42.661Z,46.75
2023-07-18T08:39:42.636Z,46.31
2023-07-18T08:40:42.616Z,46.62
2023-07-18T08:41:42.720Z,47.61
2023-07-18T08:42:42.595Z,47.31
2023-07-18T08:43:42.577Z,46.92
2023-07-18T08:44:42.819Z,46.31
2023-07-18T08:45:42.551Z,44.83
2023-07-18T08:46:42.603Z,45.62
2023-07-18T08:47:42.594Z,44.24
2023-07-18T08:48:42.511Z,46.50
2023-07-18T08:49:42.509Z,44.46
2023-07-18T08:50:42.491Z,46.25
2023-07-18T08:51:42.479Z,46.87
2023-07-18T08:52:42.526Z,47.28
2023-07-18T08:53:42.459Z,46.54
2023-07-18T08:54:42.447Z,48.91
2023-07-18T08:55:42.492Z,48.49
2023-07-18T08:56:42.426Z,48.27
2023-07-18T08:57:42.469Z,47.78
2023-07-18T08:58:42.392Z,46.28
2023-07-18T08:59:42.388Z,47.53
2023-07-18T09:00:42.374Z,47.83
2023-07-18T09:01:42.383Z,45.94
2023-07-18T09:02:42.419Z,45.64
2023-07-18T09:03:42.414Z,44.24
2023-07-18T09:04:42.324Z,43.63
2023-07-18T09:05:42.309Z,45.38
2023-07-18T09:06:42.300Z,44.59
2023-07-18T09:07:42.289Z,45.18
2023-07-18T09:08:42.267Z,43.98
2023-07-18T09:09:42.266Z,42.00
2023-07-18T09:10:42.254Z,42.58
2023-07-18T09:11:42.235Z,41.41
2023-07-18T09:12:42.323Z,44.53
2023-07-18T09:13:42.243Z,43.12
2023-07-18T09:14:42.198Z,45.01
2023-07-18T09:15:42.191Z,47.49
2023-07-18T09:16:42.241Z,45.05
2023-07-18T09:17:42.222Z,45.32
2023-07-18T09:18:42.162Z,46.41
2023-07-18T09:19:42.156Z,46.43
2023-07-18T09:20:42.132Z,47.95
2023-07-18T09:21:42.343Z,45.83
2023-07-18T09:22:42.154Z,47.09
2023-07-18T09:23:42.145Z,46.67
2023-07-18T09:24:42.083Z,44.85
2023-07-18T09:25:42.081Z,44.17
2023-07-18T09:26:42.067Z,45.59
2023-07-18T09:27:42.046Z,45.81
2023-07-18T09:28:42.036Z,48.59
2023-07-18T09:29:42.049Z,47.90
2023-07-18T09:30:42.018Z,47.33
2023-07-18T09:31:42.323Z,46.91
2023-07-18T09:32:42.022Z,46.37
2023-07-18T09:33:41.969Z,43.75
2023-07-18T09:34:41.962Z,43.53
2023-07-18T09:35:41.947Z,45.09
2023-07-18T09:36:41.934Z,45.67
2023-07-18T09:37:42.149Z,46.56
2023-07-18T09:38:41.906Z,46.06
2023-07-18T09:39:41.911Z,44.20
2023-07-18T09:40:41.916Z,44.98
2023-07-18T09:41:41.883Z,43.02
2023-07-18T09:42:45.308Z,44.18
2023-07-18T09:43:41.857Z,43.98
2023-07-18T09:45:41.888Z,45.43
2023-07-18T09:46:41.972Z,44.84
2023-07-18T09:47:42.047Z,46.91
2023-07-18T09:49:41.784Z,44.27
2023-07-18T09:50:41.777Z,42.82
2023-07-18T09:51:41.759Z,43.73
2023-07-18T09:52:41.755Z,44.34
2023-07-18T09:53:41.738Z,45.05
2023-07-18T09:54:41.720Z,45.07
2023-07-18T09:55:41.727Z,45.76
2023-07-18T09:56:41.705Z,43.82
2023-07-18T09:57:41.698Z,45.68
2023-07-18T09:58:41.682Z,46.69
2023-07-18T09:59:41.670Z,46.59
2023-07-18T10:00:41.656Z,47.60
2023-07-18T10:01:41.740Z,48.41
2023-07-18T10:02:41.754Z,47.06
2023-07-18T10:03:41.731Z,48.36
2023-07-18T10:04:41.814Z,48.07
2023-07-18T10:05:41.611Z,48.75
2023-07-18T10:06:41.601Z,51.05
2023-07-18T10:07:41.595Z,49.30
2023-07-18T10:08:41.568Z,51.97
2023-07-18T10:09:41.558Z,50.98
2023-07-18T10:10:41.544Z,51.10
2023-07-18T10:11:41.529Z,52.98
2023-07-18T10:12:41.513Z,53.11
2023-07-18T10:13:41.501Z,52.01
2023-07-18T10:14:41.485Z,50.06
2023-07-18T10:15:41.519Z,52.66
2023-07-18T10:16:41.464Z,52.66
2023-07-18T10:17:41.819Z,54.05
2023-07-18T10:18:41.442Z,53.78
2023-07-18T10:19:41.431Z,53.38
2023-07-18T10:20:41.426Z,52.39
2023-07-18T10:21:41.634Z,52.12
2023-07-18T10:22:41.470Z,51.42
2023-07-18T10:23:41.389Z,52.41
2023-07-18T10:24:41.368Z,52.91
2023-07-18T10:25:41.357Z,53.11
2023-07-18T10:26:41.338Z,53.41
2023-07-18T10:27:41.379Z,52.59
2023-07-18T10:28:41.312Z,54.86
2023-07-18T10:29:41.311Z,53.48
2023-07-18T10:30:41.286Z,54.17
2023-07-18T10:31:41.345Z,54.99
2023-07-18T10:32:41.303Z,54.79
2023-07-18T10:33:41.290Z,54.92
2023-07-18T10:34:41.239Z,55.51
2023-07-18T10:35:41.468Z,55.02
2023-07-18T10:36:41.218Z,54.82
2023-07-18T10:37:41.203Z,56.38
2023-07-18T10:38:41.194Z,56.57
2023-07-18T10:39:41.183Z,56.65
2023-07-18T10:40:41.382Z,56.59
2023-07-18T10:41:41.148Z,53.92
2023-07-18T10:42:41.142Z,53.63
2023-07-18T10:43:41.475Z,53.95
2023-07-18T10:44:41.117Z,54.24
2023-07-18T10:45:41.215Z,55.33
2023-07-18T10:46:41.109Z,55.43
2023-07-18T10:47:41.113Z,54.84
2023-07-18T10:48:41.065Z,54.71
2023-07-18T10:49:41.099Z,54.12
2023-07-18T10:50:41.047Z,51.77
2023-07-18T10:51:41.028Z,53.25
2023-07-18T10:52:41.017Z,53.85
2023-07-18T10:53:41.062Z,54.64
2023-07-18T10:54:40.987Z,53.95
2023-07-18T10:55:40.995Z,55.43
2023-07-18T10:56:40.958Z,54.37
2023-07-18T10:57:40.950Z,53.48
2023-07-18T10:58:40.947Z,53.80
2023-07-18T10:59:41.023Z,55.29
2023-07-18T11:00:40.978Z,53.63
2023-07-18T11:01:41.026Z,55.71
2023-07-18T11:02:40.972Z,55.02
2023-07-18T11:03:40.946Z,53.85
2023-07-18T11:04:40.864Z,55.24
2023-07-18T11:05:40.878Z,56.53
2023-07-18T11:06:40.834Z,55.71
2023-07-18T11:07:40.828Z,56.23
2023-07-18T11:08:40.806Z,56.51
2023-07-18T11:09:40.799Z,55.83
2023-07-18T11:10:40.776Z,57.40
2023-07-18T11:11:40.776Z,56.30
2023-07-18T11:12:40.754Z,56.01
2023-07-18T11:13:40.745Z,55.41
2023-07-18T11:14:40.735Z,55.02
2023-07-18T11:15:40.953Z,55.81
2023-07-18T11:16:40.783Z,55.41
2023-07-18T11:17:40.720Z,54.62
2023-07-18T11:18:40.688Z,55.44
2023-07-18T11:19:40.672Z,56.63
2023-07-18T11:20:40.659Z,57.13
2023-07-18T11:21:40.662Z,56.04
2023-07-18T11:22:40.821Z,57.03
2023-07-18T11:23:40.622Z,57.92
2023-07-18T11:24:40.599Z,56.56
2023-07-18T11:25:40.592Z,56.26
2023-07-18T11:26:40.798Z,56.06
2023-07-18T11:27:40.565Z,55.66
2023-07-18T11:28:40.554Z,57.18
2023-07-18T11:29:40.539Z,57.18
2023-07-18T11:30:40.535Z,56.78
2023-07-18T11:31:41.921Z,56.88
2023-07-18T11:32:40.589Z,58.40
2023-07-18T11:33:40.496Z,58.20
2023-07-18T11:34:40.477Z,58.90
2023-07-18T11:35:40.456Z,59.19
2023-07-18T11:36:40.450Z,60.09
2023-07-18T11:37:42.553Z,61.91
2023-07-18T11:38:40.422Z,62.80
2023-07-18T11:39:40.420Z,61.01
2023-07-18T11:40:40.393Z,61.80
2023-07-18T11:41:40.386Z,62.34
2023-07-18T11:42:40.366Z,63.82
2023-07-18T11:43:40.362Z,66.94
2023-07-18T11:44:40.341Z,66.64
2023-07-18T11:45:40.338Z,68.43
2023-07-18T11:46:40.319Z,69.32
2023-07-18T11:47:40.465Z,70.42
2023-07-18T11:48:40.363Z,71.31
2023-07-18T11:49:40.281Z,69.32
2023-07-18T11:50:40.259Z,70.26
2023-07-18T11:51:40.254Z,73.44
2023-07-18T11:52:40.244Z,73.64
2023-07-18T11:53:40.250Z,72.14
2023-07-18T11:54:40.208Z,73.04
2023-07-18T11:55:40.195Z,71.95
2023-07-18T11:56:40.185Z,71.15
2023-07-18T11:57:40.169Z,77.92
2023-07-18T11:58:40.160Z,73.74
2023-07-18T11:59:40.144Z,72.64
2023-07-18T12:00:40.133Z,69.16
2023-07-18T12:01:40.137Z,66.77
2023-07-18T12:02:40.218Z,66.67
2023-07-18T12:03:40.249Z,67.77
2023-07-18T12:04:40.115Z,67.17
2023-07-18T12:05:40.085Z,71.84
2023-07-18T12:06:40.052Z,72.05
2023-07-18T12:07:40.049Z,73.14
2023-07-18T12:08:40.030Z,68.66
2023-07-18T12:09:40.152Z,66.71
2023-07-18T12:10:40.002Z,67.97
2023-07-18T12:11:40.085Z,68.86
2023-07-18T12:12:39.983Z,69.85
2023-07-18T12:13:39.961Z,69.26
2023-07-18T12:14:39.948Z,68.76
2023-07-18T12:15:39.932Z,68.63
2023-07-18T12:16:40.049Z,68.86
2023-07-18T12:17:39.980Z,69.56
2023-07-18T12:18:39.960Z,69.92
2023-07-18T12:19:39.880Z,69.13
2023-07-18T12:20:39.869Z,68.73
2023-07-18T12:21:39.852Z,71.51
2023-07-18T12:22:39.918Z,70.92
2023-07-18T12:23:39.826Z,67.70
2023-07-18T12:24:39.814Z,65.22
2023-07-18T12:25:39.856Z,67.40
2023-07-18T12:26:39.794Z,66.21
2023-07-18T12:27:39.786Z,68.90
2023-07-18T12:28:39.758Z,70.48
2023-07-18T12:29:39.756Z,69.66
2023-07-18T12:30:39.795Z,69.39
2023-07-18T12:31:39.848Z,64.39
2023-07-18T12:32:39.771Z,65.98
2023-07-18T12:33:39.835Z,65.19
2023-07-18T12:34:39.686Z,65.48
2023-07-18T12:35:39.664Z,65.68
2023-07-18T12:36:39.645Z,64.26
2023-07-18T12:37:39.632Z,62.97
2023-07-18T12:38:39.621Z,63.64
2023-07-18T12:39:39.635Z,65.22
2023-07-18T12:40:39.599Z,66.31
2023-07-18T12:41:39.607Z,65.42
2023-07-18T12:42:39.585Z,64.43
2023-07-18T12:43:39.558Z,64.03
2023-07-18T12:44:39.543Z,63.34
2023-07-18T12:45:39.529Z,62.51
2023-07-18T12:46:39.543Z,64.20
2023-07-18T12:47:39.566Z,63.01
2023-07-18T12:48:49.941Z,64.20
2023-07-18T12:50:39.463Z,64.00
2023-07-18T12:51:39.560Z,62.81
2023-07-18T12:52:39.449Z,64.89
2023-07-18T12:53:39.426Z,64.59
2023-07-18T12:54:39.423Z,64.10
2023-07-18T12:55:39.428Z,64.20